Time;durP1;ratioP1;P1;durP2;ratioP2;P2;SDS_P1;SDS_P2;PMS_P1;PMS_P2;Temp;Humidity;BMP_temperature;BMP_pressure;BME280_temperature;BME280_humidity;BME280_pressure;Samples;Min_cycle;Max_cycle;Signal;HPM_P1;HPM_P2
2021/12/28 00:00:31;;;;;;;115.75;47.30;;;0.70;99.90;;;;;;5032147;28;20113;-72
2021/12/28 00:02:58;;;;;;;106.18;46.45;;;0.70;99.90;;;;;;5034961;28;20029;-73
2021/12/28 00:05:25;;;;;;;101.63;45.10;;;0.70;99.90;;;;;;5030033;28;20033;-73
2021/12/28 00:07:51;;;;;;;115.53;45.03;;;0.70;99.90;;;;;;5013888;28;20516;-73
2021/12/28 00:10:19;;;;;;;102.72;45.80;;;0.70;99.90;;;;;;5015023;28;20450;-73
2021/12/28 00:12:46;;;;;;;106.78;45.95;;;0.70;99.90;;;;;;5014964;28;20560;-73
2021/12/28 00:17:59;;;;;;;116.60;46.60;;;0.80;99.90;;;;;;5015122;28;20033;-72
2021/12/28 00:20:26;;;;;;;109.22;44.88;;;0.80;99.90;;;;;;5034836;28;20108;-73
2021/12/28 00:22:52;;;;;;;101.57;43.67;;;0.70;99.90;;;;;;5031807;28;20079;-73
2021/12/28 00:25:18;;;;;;;99.05;43.20;;;0.70;99.90;;;;;;5034424;28;20033;-73
2021/12/28 00:27:43;;;;;;;97.25;46.22;;;0.70;99.90;;;;;;5029840;28;20057;-73
2021/12/28 00:30:10;;;;;;;94.82;43.15;;;0.80;99.90;;;;;;5016219;28;20021;-72
2021/12/28 00:32:36;;;;;;;101.75;45.97;;;0.70;99.90;;;;;;5029562;28;20512;-73
2021/12/28 00:35:03;;;;;;;106.07;44.85;;;0.70;99.90;;;;;;5014574;28;20034;-73
2021/12/28 00:37:29;;;;;;;104.03;45.10;;;0.80;99.90;;;;;;5014623;28;20037;-73
2021/12/28 00:39:54;;;;;;;106.25;45.05;;;0.80;99.90;;;;;;5014435;28;20023;-73
2021/12/28 00:42:20;;;;;;;99.40;44.90;;;0.80;99.90;;;;;;5024716;28;20025;-73
2021/12/28 00:44:45;;;;;;;97.72;45.10;;;0.70;99.90;;;;;;5031838;28;20113;-73
2021/12/28 00:47:11;;;;;;;94.18;43.85;;;0.80;99.90;;;;;;5034560;28;20025;-73
2021/12/28 00:49:37;;;;;;;99.47;42.83;;;0.80;99.90;;;;;;5024489;28;20127;-72
2021/12/28 00:52:03;;;;;;;95.32;43.33;;;0.80;99.90;;;;;;5014580;28;20029;-73
2021/12/28 00:54:28;;;;;;;99.22;43.40;;;0.80;99.90;;;;;;5017763;28;20057;-73
2021/12/28 00:56:54;;;;;;;93.47;44.35;;;0.80;99.90;;;;;;5031910;28;20112;-72
2021/12/28 00:59:19;;;;;;;90.93;44.65;;;0.80;99.90;;;;;;5033766;28;20034;-73
2021/12/28 01:01:47;;;;;;;97.80;43.50;;;0.90;99.90;;;;;;5033828;28;20021;-73
2021/12/28 01:04:13;;;;;;;103.07;45.70;;;0.90;99.90;;;;;;5034081;28;20024;-73
2021/12/28 01:06:38;;;;;;;98.82;46.08;;;0.90;99.90;;;;;;5032836;28;20108;-72
2021/12/28 01:09:04;;;;;;;92.50;42.63;;;0.90;99.90;;;;;;5030058;28;20472;-72
2021/12/28 01:11:30;;;;;;;92.90;42.25;;;0.90;99.90;;;;;;5034193;28;20117;-72
2021/12/28 01:13:55;;;;;;;93.45;42.70;;;0.90;99.90;;;;;;5021705;28;20101;-72
2021/12/28 01:16:21;;;;;;;94.97;43.30;;;0.90;99.90;;;;;;5013780;28;20112;-73
2021/12/28 01:18:46;;;;;;;82.72;41.08;;;0.90;99.90;;;;;;5015818;28;20065;-73
2021/12/28 01:21:12;;;;;;;97.05;44.05;;;0.90;99.90;;;;;;5013769;28;20030;-73
2021/12/28 01:23:37;;;;;;;95.15;41.97;;;1.00;99.90;;;;;;5013730;28;20481;-72
2021/12/28 01:26:03;;;;;;;96.40;44.17;;;1.00;99.90;;;;;;5016088;28;20482;-72
2021/12/28 01:28:28;;;;;;;97.47;42.50;;;1.00;99.90;;;;;;5023112;28;20033;-72
2021/12/28 01:30:54;;;;;;;89.43;40.97;;;1.00;99.90;;;;;;5033101;28;20500;-73
2021/12/28 01:33:20;;;;;;;90.55;42.25;;;1.10;99.90;;;;;;5018897;28;20073;-72
2021/12/28 01:35:46;;;;;;;92.45;41.70;;;1.10;99.90;;;;;;5013886;28;20049;-72
2021/12/28 01:38:12;;;;;;;88.95;40.97;;;1.10;99.90;;;;;;5021252;28;20496;-72
2021/12/28 01:40:41;;;;;;;85.10;40.90;;;1.10;99.90;;;;;;5033272;28;20559;-72
2021/12/28 01:43:11;;;;;;;91.55;41.97;;;1.10;99.90;;;;;;5022711;28;20103;-72
2021/12/28 01:45:45;;;;;;;80.22;39.65;;;1.10;99.90;;;;;;5013429;28;20429;-73
2021/12/28 01:48:15;;;;;;;83.78;39.47;;;1.10;99.90;;;;;;5017077;28;20048;-73
2021/12/28 01:50:41;;;;;;;86.03;40.47;;;1.10;99.90;;;;;;5013326;28;20034;-72
2021/12/28 01:53:08;;;;;;;87.38;40.60;;;1.10;99.90;;;;;;5015463;28;20037;-72
2021/12/28 01:55:37;;;;;;;89.07;40.50;;;1.10;99.90;;;;;;5028847;28;20029;-73
2021/12/28 01:58:03;;;;;;;88.50;38.60;;;1.10;99.90;;;;;;5032828;28;20067;-72
2021/12/28 02:00:29;;;;;;;83.30;39.55;;;1.10;99.90;;;;;;5035774;28;20084;-72
2021/12/28 02:02:55;;;;;;;82.72;39.60;;;1.20;99.90;;;;;;5018913;28;20101;-73
2021/12/28 02:05:21;;;;;;;80.35;37.97;;;1.20;99.90;;;;;;5016997;28;20096;-72
2021/12/28 02:07:47;;;;;;;75.57;38.10;;;1.20;99.90;;;;;;5034368;28;20090;-73
2021/12/28 02:10:13;;;;;;;76.13;37.55;;;1.20;99.90;;;;;;5037022;28;20033;-73
2021/12/28 02:12:38;;;;;;;81.38;39.25;;;1.20;99.90;;;;;;5024280;28;20030;-72
2021/12/28 02:15:07;;;;;;;75.78;37.33;;;1.20;99.90;;;;;;5021802;28;20100;-72
2021/12/28 02:17:34;;;;;;;77.55;37.28;;;1.20;99.90;;;;;;5037364;28;20025;-73
2021/12/28 02:20:17;;;;;;;78.38;37.03;;;1.20;99.90;;;;;;5036841;28;20538;-73
2021/12/28 02:22:43;;;;;;;82.28;40.28;;;1.20;99.90;;;;;;5036954;28;20445;-73
2021/12/28 02:25:10;;;;;;;81.50;38.60;;;1.20;99.90;;;;;;5035566;28;20105;-73
2021/12/28 02:27:36;;;;;;;86.07;39.67;;;1.20;99.90;;;;;;5015701;28;20470;-73
2021/12/28 02:30:05;;;;;;;83.25;37.72;;;1.20;99.90;;;;;;5017118;28;20037;-73
2021/12/28 02:32:31;;;;;;;78.50;36.80;;;1.20;99.90;;;;;;5016842;28;20029;-73
2021/12/28 02:34:57;;;;;;;75.20;37.05;;;1.20;99.90;;;;;;5015590;28;20517;-73
2021/12/28 02:37:24;;;;;;;78.55;37.85;;;1.20;99.90;;;;;;5017693;28;20033;-73
2021/12/28 02:39:51;;;;;;;80.35;37.15;;;1.20;99.90;;;;;;5015499;28;20037;-73
2021/12/28 02:42:18;;;;;;;79.18;38.80;;;1.20;99.90;;;;;;5020085;28;20022;-73
2021/12/28 02:44:44;;;;;;;83.13;38.72;;;1.20;99.90;;;;;;5016793;28;20044;-72
2021/12/28 02:47:15;;;;;;;86.53;40.25;;;1.20;99.90;;;;;;5031736;28;20480;-72
2021/12/28 02:49:40;;;;;;;76.40;38.83;;;1.20;99.90;;;;;;5036378;28;20037;-72
2021/12/28 02:52:09;;;;;;;81.45;39.70;;;1.20;99.90;;;;;;5033294;28;20030;-73
2021/12/28 02:54:37;;;;;;;81.85;37.88;;;1.20;99.90;;;;;;5029376;28;20037;-73
2021/12/28 02:57:03;;;;;;;91.63;38.03;;;1.20;99.90;;;;;;5027092;28;20405;-72
2021/12/28 02:59:29;;;;;;;75.03;38.17;;;1.30;99.90;;;;;;5030490;28;20021;-72
2021/12/28 03:01:55;;;;;;;77.75;38.08;;;1.30;99.90;;;;;;5036461;28;20477;-73
2021/12/28 03:04:23;;;;;;;83.28;38.75;;;1.30;99.90;;;;;;5033995;28;20029;-72
2021/12/28 03:06:48;;;;;;;76.50;37.63;;;1.30;99.90;;;;;;5024268;28;20064;-72
2021/12/28 03:09:15;;;;;;;81.28;39.58;;;1.30;99.90;;;;;;5016434;28;20061;-72
2021/12/28 03:11:41;;;;;;;74.70;36.45;;;1.30;99.90;;;;;;5034022;28;20120;-72
2021/12/28 03:14:07;;;;;;;88.18;40.10;;;1.30;99.90;;;;;;5034588;28;20515;-73
2021/12/28 03:16:33;;;;;;;78.93;36.15;;;1.30;99.90;;;;;;5022752;28;20022;-73
2021/12/28 03:18:59;;;;;;;82.65;38.70;;;1.30;99.90;;;;;;5015894;28;20493;-73
2021/12/28 03:21:26;;;;;;;79.75;38.83;;;1.30;99.90;;;;;;5024135;28;20053;-72
2021/12/28 03:23:54;;;;;;;77.43;37.35;;;1.30;99.90;;;;;;5035705;28;20025;-73
2021/12/28 03:26:20;;;;;;;73.13;36.17;;;1.30;99.90;;;;;;5035842;28;20018;-73
2021/12/28 03:28:46;;;;;;;79.40;39.25;;;1.20;99.90;;;;;;5022005;28;20032;-72
2021/12/28 03:31:17;;;;;;;83.03;38.03;;;1.20;99.90;;;;;;5015767;28;20038;-72
2021/12/28 03:33:44;;;;;;;79.50;38.67;;;1.20;99.90;;;;;;5016041;28;20088;-73
2021/12/28 03:36:11;;;;;;;84.95;39.88;;;1.10;99.90;;;;;;5015595;28;20045;-73
2021/12/28 03:38:40;;;;;;;87.35;37.67;;;1.10;99.90;;;;;;5015578;28;20022;-73
2021/12/28 03:41:07;;;;;;;87.93;39.13;;;1.20;99.90;;;;;;5015597;28;20065;-73
2021/12/28 03:43:39;;;;;;;76.78;36.78;;;1.20;99.90;;;;;;5015574;28;20046;-73
2021/12/28 03:46:06;;;;;;;83.97;39.45;;;1.20;99.90;;;;;;5015488;28;20389;-73
2021/12/28 03:48:32;;;;;;;76.63;37.03;;;1.20;99.90;;;;;;5014109;28;20136;-72
2021/12/28 03:50:57;;;;;;;81.15;38.50;;;1.20;99.90;;;;;;5015686;28;20489;-73
2021/12/28 03:53:23;;;;;;;78.85;38.28;;;1.20;99.90;;;;;;5028321;28;20083;-72
2021/12/28 03:55:49;;;;;;;83.57;39.45;;;1.20;99.90;;;;;;5035034;28;20033;-73
2021/12/28 03:58:14;;;;;;;82.78;39.92;;;1.20;99.90;;;;;;5030346;28;20117;-72
2021/12/28 04:00:46;;;;;;;80.20;38.03;;;1.20;99.90;;;;;;5015436;28;20068;-73
2021/12/28 04:03:12;;;;;;;97.53;39.45;;;1.20;99.90;;;;;;5021948;28;20101;-72
2021/12/28 04:05:39;;;;;;;81.47;38.47;;;1.30;99.90;;;;;;5035153;28;20021;-73
2021/12/28 04:08:06;;;;;;;72.22;36.72;;;1.30;99.90;;;;;;5027299;28;20022;-73
2021/12/28 04:10:38;;;;;;;80.95;39.42;;;1.30;99.90;;;;;;5014995;28;20033;-72
2021/12/28 04:13:04;;;;;;;80.38;36.92;;;1.30;99.90;;;;;;5015424;28;20033;-73
2021/12/28 04:15:30;;;;;;;76.82;38.25;;;1.30;99.90;;;;;;5014867;28;20397;-73
2021/12/28 04:17:56;;;;;;;77.72;38.03;;;1.30;99.90;;;;;;5015367;28;20437;-73
2021/12/28 04:20:22;;;;;;;78.25;39.47;;;1.30;99.90;;;;;;5014312;28;20022;-73
2021/12/28 04:22:49;;;;;;;76.18;38.38;;;1.30;99.90;;;;;;5014759;28;20526;-73
2021/12/28 04:25:16;;;;;;;78.50;38.97;;;1.30;99.90;;;;;;5013436;28;20018;-73
2021/12/28 04:27:43;;;;;;;88.90;40.10;;;1.40;99.90;;;;;;5016425;28;20025;-72
2021/12/28 04:30:10;;;;;;;75.07;37.65;;;1.40;99.90;;;;;;5029846;28;20382;-73
2021/12/28 04:32:38;;;;;;;83.50;39.47;;;1.40;99.90;;;;;;5016996;28;20076;-73
2021/12/28 04:35:04;;;;;;;78.65;38.63;;;1.40;99.90;;;;;;5013361;28;20022;-73
2021/12/28 04:37:30;;;;;;;80.95;38.92;;;1.40;99.90;;;;;;5018079;28;20053;-73
2021/12/28 04:39:56;;;;;;;84.95;38.63;;;1.40;99.90;;;;;;5034310;28;20496;-73
2021/12/28 04:42:22;;;;;;;78.82;38.03;;;1.40;99.90;;;;;;5034159;28;20018;-73
2021/12/28 04:44:50;;;;;;;78.40;39.25;;;1.40;99.90;;;;;;5033193;28;20488;-73
2021/12/28 04:47:16;;;;;;;79.68;37.22;;;1.40;99.90;;;;;;5027922;28;20500;-73
2021/12/28 04:49:42;;;;;;;78.13;36.78;;;1.40;99.90;;;;;;5014377;28;20478;-73
2021/12/28 04:52:08;;;;;;;77.07;37.40;;;1.40;99.90;;;;;;5014292;28;20038;-73
2021/12/28 04:54:33;;;;;;;69.32;34.42;;;1.50;99.90;;;;;;5014168;28;20033;-73
2021/12/28 04:56:59;;;;;;;79.95;37.58;;;1.50;99.90;;;;;;5012877;28;20026;-73
2021/12/28 04:59:24;;;;;;;74.88;38.70;;;1.50;99.90;;;;;;5014082;28;20072;-73
2021/12/28 05:01:50;;;;;;;69.22;35.75;;;1.50;99.90;;;;;;5014258;28;20025;-73
2021/12/28 05:04:16;;;;;;;69.70;36.53;;;1.50;99.90;;;;;;5014050;28;20026;-73
2021/12/28 05:06:41;;;;;;;78.93;37.20;;;1.50;99.90;;;;;;5013836;28;20117;-73
2021/12/28 05:09:11;;;;;;;74.72;35.92;;;1.40;99.90;;;;;;5013984;28;20053;-73
2021/12/28 05:11:38;;;;;;;77.28;37.13;;;1.50;99.90;;;;;;5014325;28;20351;-73
2021/12/28 05:14:05;;;;;;;72.57;35.92;;;1.50;99.90;;;;;;5013948;28;20065;-73
2021/12/28 05:16:33;;;;;;;71.88;36.45;;;1.50;99.90;;;;;;5013832;28;20034;-73
2021/12/28 05:19:00;;;;;;;76.60;36.92;;;1.50;99.90;;;;;;5012576;28;20036;-73
2021/12/28 05:21:25;;;;;;;70.95;33.90;;;1.50;99.90;;;;;;5013874;28;20485;-73
2021/12/28 05:23:51;;;;;;;68.93;35.75;;;1.50;99.90;;;;;;5014300;28;20075;-73
2021/12/28 05:26:17;;;;;;;78.68;37.63;;;1.50;99.90;;;;;;5013827;28;20049;-73
2021/12/28 05:28:42;;;;;;;75.75;33.85;;;1.50;99.90;;;;;;5012358;28;20501;-73
2021/12/28 05:31:08;;;;;;;78.95;37.47;;;1.50;99.90;;;;;;5013946;28;20026;-73
2021/12/28 05:33:34;;;;;;;73.10;36.50;;;1.50;99.90;;;;;;5013932;28;20021;-73
2021/12/28 05:36:00;;;;;;;76.50;37.85;;;1.50;99.90;;;;;;5033304;28;20035;-73
2021/12/28 05:38:25;;;;;;;79.90;38.25;;;1.40;99.90;;;;;;5033676;28;20040;-73
2021/12/28 05:40:51;;;;;;;70.97;37.30;;;1.40;99.90;;;;;;5017681;28;20018;-73
2021/12/28 05:43:16;;;;;;;77.90;38.17;;;1.40;99.90;;;;;;5022011;28;20473;-73
2021/12/28 05:45:43;;;;;;;77.05;36.83;;;1.40;99.90;;;;;;5033409;28;20026;-73
2021/12/28 05:48:09;;;;;;;77.40;38.35;;;1.40;99.90;;;;;;5033187;28;20551;-73
2021/12/28 05:50:35;;;;;;;74.15;37.85;;;1.40;99.90;;;;;;5033156;28;20029;-73
2021/12/28 05:53:00;;;;;;;80.65;37.28;;;1.40;99.90;;;;;;5033130;28;20075;-73
2021/12/28 05:55:26;;;;;;;79.90;38.00;;;1.40;99.90;;;;;;5029910;28;20127;-73
2021/12/28 05:57:51;;;;;;;86.00;37.92;;;1.40;99.90;;;;;;5027775;28;20034;-73
2021/12/28 06:00:17;;;;;;;82.55;39.47;;;1.40;99.90;;;;;;5013609;28;20033;-73
2021/12/28 06:02:45;;;;;;;85.35;39.10;;;1.40;99.90;;;;;;5033055;28;20030;-73
2021/12/28 06:05:10;;;;;;;83.90;40.20;;;1.40;99.90;;;;;;5032822;28;20032;-73
2021/12/28 06:07:36;;;;;;;82.55;38.25;;;1.40;99.90;;;;;;5033090;28;20029;-73
2021/12/28 06:10:04;;;;;;;77.20;40.22;;;1.40;99.90;;;;;;5032937;28;20033;-73
2021/12/28 06:12:29;;;;;;;77.95;38.67;;;1.40;99.90;;;;;;5020305;28;20033;-74
2021/12/28 06:14:55;;;;;;;73.53;37.13;;;1.40;99.90;;;;;;5013230;28;20021;-73
2021/12/28 06:17:21;;;;;;;87.88;40.00;;;1.40;99.90;;;;;;5013086;28;20026;-73
2021/12/28 06:19:47;;;;;;;77.18;37.97;;;1.40;99.90;;;;;;5013109;28;20030;-73
2021/12/28 06:22:13;;;;;;;69.38;38.80;;;1.40;99.90;;;;;;5013442;28;20548;-72
2021/12/28 06:24:39;;;;;;;83.07;38.70;;;1.40;99.90;;;;;;5013137;28;20026;-73
2021/12/28 06:27:05;;;;;;;78.30;36.35;;;1.40;99.90;;;;;;5013336;28;20505;-73
2021/12/28 06:29:31;;;;;;;82.20;38.28;;;1.40;99.90;;;;;;5013120;28;20059;-73
2021/12/28 06:31:57;;;;;;;81.95;37.30;;;1.40;99.90;;;;;;5013042;28;20037;-73
2021/12/28 06:34:22;;;;;;;83.95;39.47;;;1.40;99.90;;;;;;5013316;28;20057;-73
2021/12/28 06:36:48;;;;;;;79.18;37.97;;;1.40;99.90;;;;;;5012890;28;20030;-73
2021/12/28 06:39:14;;;;;;;83.15;39.58;;;1.40;99.90;;;;;;5012926;28;20040;-73
2021/12/28 06:41:39;;;;;;;79.65;39.80;;;1.40;99.90;;;;;;5011682;28;20141;-73
2021/12/28 06:44:07;;;;;;;83.85;40.83;;;1.40;99.90;;;;;;5015470;28;20053;-73
2021/12/28 06:46:33;;;;;;;85.43;41.33;;;1.40;99.90;;;;;;5015314;28;20026;-73
2021/12/28 06:48:58;;;;;;;80.35;40.00;;;1.40;99.90;;;;;;5016590;28;20485;-73
2021/12/28 06:51:24;;;;;;;88.53;41.65;;;1.40;99.90;;;;;;5016530;28;20041;-73
2021/12/28 06:53:50;;;;;;;94.00;42.00;;;1.40;99.90;;;;;;5016552;28;20131;-73
2021/12/28 06:56:15;;;;;;;86.32;39.47;;;1.40;99.90;;;;;;5016439;28;20057;-73
2021/12/28 06:58:41;;;;;;;88.55;41.25;;;1.40;99.90;;;;;;5020769;28;20367;-73
2021/12/28 07:01:07;;;;;;;90.10;40.85;;;1.40;99.90;;;;;;5016393;28;20064;-73
2021/12/28 07:03:33;;;;;;;86.20;41.10;;;1.40;99.90;;;;;;5016465;28;20481;-73
2021/12/28 07:05:58;;;;;;;86.25;40.85;;;1.40;99.90;;;;;;5016329;28;20044;-73
2021/12/28 07:08:24;;;;;;;79.47;39.70;;;1.40;99.90;;;;;;5014948;28;20032;-73
2021/12/28 07:10:49;;;;;;;89.47;40.63;;;1.40;99.90;;;;;;5029283;28;20032;-73
2021/12/28 07:13:15;;;;;;;90.35;41.53;;;1.40;99.90;;;;;;5034656;28;20025;-73
2021/12/28 07:15:41;;;;;;;85.85;40.80;;;1.50;99.90;;;;;;5036026;28;20021;-73
2021/12/28 07:18:07;;;;;;;84.95;40.83;;;1.40;99.90;;;;;;5035855;28;20025;-73
2021/12/28 07:20:32;;;;;;;91.63;41.63;;;1.40;99.90;;;;;;5036027;28;20078;-73
2021/12/28 07:22:58;;;;;;;95.03;42.97;;;1.40;99.90;;;;;;5033253;28;20484;-73
2021/12/28 07:25:24;;;;;;;90.22;44.08;;;1.40;99.90;;;;;;5035714;28;20072;-73
2021/12/28 07:27:50;;;;;;;95.70;44.25;;;1.40;99.90;;;;;;5027978;28;20025;-73
2021/12/28 07:30:16;;;;;;;91.53;44.28;;;1.40;99.90;;;;;;5015821;28;20022;-73
2021/12/28 07:32:41;;;;;;;93.90;45.78;;;1.40;99.90;;;;;;5017928;28;20107;-73
2021/12/28 07:35:09;;;;;;;100.60;46.08;;;1.30;99.90;;;;;;5014430;28;20021;-73
2021/12/28 07:37:35;;;;;;;106.82;46.58;;;1.30;99.90;;;;;;5023504;28;20029;-73
2021/12/28 07:40:01;;;;;;;95.85;45.42;;;1.30;99.90;;;;;;5035407;28;20488;-73
2021/12/28 07:42:26;;;;;;;97.68;47.47;;;1.30;99.90;;;;;;5030006;28;20026;-72
2021/12/28 07:44:52;;;;;;;97.50;44.60;;;1.30;99.90;;;;;;5033266;28;20032;-73
2021/12/28 07:47:17;;;;;;;96.95;45.33;;;1.30;99.90;;;;;;5035228;28;20092;-73
2021/12/28 07:49:43;;;;;;;98.65;46.28;;;1.30;99.90;;;;;;5020813;28;20104;-73
2021/12/28 07:52:09;;;;;;;96.65;45.97;;;1.30;99.90;;;;;;5021765;28;20033;-73
2021/12/28 07:54:34;;;;;;;110.75;46.47;;;1.30;99.90;;;;;;5035042;28;20029;-73
2021/12/28 07:57:00;;;;;;;96.07;45.72;;;1.30;99.90;;;;;;5032310;28;20037;-73
2021/12/28 07:59:25;;;;;;;99.57;47.47;;;1.30;99.90;;;;;;5033756;28;20381;-73
2021/12/28 08:01:51;;;;;;;104.35;49.15;;;1.30;99.90;;;;;;5033724;28;20029;-73
2021/12/28 08:04:17;;;;;;;99.18;45.42;;;1.30;99.90;;;;;;5022019;28;20022;-73
2021/12/28 08:06:42;;;;;;;105.93;48.92;;;1.30;99.90;;;;;;5034735;28;20034;-73
2021/12/28 08:09:08;;;;;;;116.35;51.30;;;1.30;99.90;;;;;;5032675;28;20033;-74
2021/12/28 08:11:34;;;;;;;112.93;49.83;;;1.30;99.90;;;;;;5034860;28;20164;-73
2021/12/28 08:14:00;;;;;;;110.18;49.03;;;1.30;99.90;;;;;;5021586;28;20025;-73
2021/12/28 08:16:26;;;;;;;104.30;50.72;;;1.40;99.90;;;;;;5014920;28;20068;-73
2021/12/28 08:18:52;;;;;;;104.03;49.15;;;1.30;99.90;;;;;;5022089;28;20558;-73
2021/12/28 08:21:18;;;;;;;114.57;49.30;;;1.30;99.90;;;;;;5034696;28;20591;-73
2021/12/28 08:23:43;;;;;;;125.70;51.55;;;1.40;99.90;;;;;;5020005;28;20508;-73
2021/12/28 08:26:09;;;;;;;115.43;50.70;;;1.30;99.90;;;;;;5014759;28;20046;-73
2021/12/28 08:28:34;;;;;;;107.50;48.28;;;1.30;99.90;;;;;;5013385;28;20507;-73
2021/12/28 08:31:00;;;;;;;113.68;50.28;;;1.30;99.90;;;;;;5014898;28;20567;-73
2021/12/28 08:33:28;;;;;;;109.35;48.72;;;1.30;99.90;;;;;;5014913;28;20030;-73
2021/12/28 08:35:54;;;;;;;111.60;49.20;;;1.40;99.90;;;;;;5016903;28;20028;-73
2021/12/28 08:38:20;;;;;;;102.75;49.63;;;1.40;99.90;;;;;;5014524;28;20037;-71
2021/12/28 08:40:46;;;;;;;103.78;49.72;;;1.40;99.90;;;;;;5014382;28;20026;-74
2021/12/28 08:43:12;;;;;;;107.15;51.35;;;1.40;99.90;;;;;;5024346;28;20473;-73
2021/12/28 08:45:40;;;;;;;109.35;49.28;;;1.40;99.90;;;;;;5014346;28;20049;-73
2021/12/28 08:48:06;;;;;;;114.85;51.53;;;1.30;99.90;;;;;;5015869;28;20403;-73
2021/12/28 08:50:32;;;;;;;131.73;54.22;;;1.40;99.90;;;;;;5034092;28;20021;-73
2021/12/28 08:52:58;;;;;;;113.15;51.20;;;1.30;99.90;;;;;;5032871;28;20040;-73
2021/12/28 08:55:25;;;;;;;120.95;53.33;;;1.30;99.90;;;;;;5031937;28;20025;-73
2021/12/28 08:57:51;;;;;;;107.63;50.60;;;1.30;99.90;;;;;;5016985;28;20378;-73
2021/12/28 09:00:24;;;;;;;121.50;51.03;;;1.40;99.90;;;;;;5014499;28;20029;-75
2021/12/28 09:02:52;;;;;;;117.32;49.80;;;1.40;99.90;;;;;;5016519;28;20026;-75
2021/12/28 09:05:18;;;;;;;122.75;52.38;;;1.40;99.90;;;;;;5014337;28;20034;-74
2021/12/28 09:07:44;;;;;;;115.63;51.00;;;1.40;99.90;;;;;;5014239;28;20516;-74
2021/12/28 09:10:09;;;;;;;125.07;50.90;;;1.40;99.90;;;;;;5018873;28;20473;-75
2021/12/28 09:12:35;;;;;;;117.90;50.08;;;1.40;99.90;;;;;;5030395;28;20022;-72
2021/12/28 09:15:01;;;;;;;122.97;53.65;;;1.40;99.90;;;;;;5033661;28;20428;-74
2021/12/28 09:17:27;;;;;;;119.50;52.80;;;1.40;99.90;;;;;;5029522;28;20078;-72
2021/12/28 09:19:53;;;;;;;114.13;52.28;;;1.40;99.90;;;;;;5033531;28;20029;-73
2021/12/28 09:22:18;;;;;;;130.35;53.50;;;1.40;99.90;;;;;;5029370;28;20505;-72
2021/12/28 09:24:44;;;;;;;117.40;52.58;;;1.40;99.90;;;;;;5033773;28;20030;-73
2021/12/28 09:27:10;;;;;;;117.10;53.05;;;1.50;99.90;;;;;;5032430;28;20085;-72
2021/12/28 09:29:37;;;;;;;133.45;55.67;;;1.50;99.90;;;;;;5019089;28;20030;-73
2021/12/28 09:32:03;;;;;;;131.30;54.38;;;1.50;99.90;;;;;;5015776;28;20493;-73
2021/12/28 09:34:29;;;;;;;120.18;50.83;;;1.50;99.90;;;;;;5012717;28;20038;-73
2021/12/28 09:36:55;;;;;;;120.75;51.55;;;1.50;99.90;;;;;;5015632;28;20030;-73
2021/12/28 09:39:23;;;;;;;139.93;52.97;;;1.50;99.90;;;;;;5012338;28;20389;-73
2021/12/28 09:41:53;;;;;;;128.27;52.83;;;1.50;99.90;;;;;;5015700;28;20065;-73
2021/12/28 09:44:19;;;;;;;122.43;52.72;;;1.60;99.90;;;;;;5013707;28;20041;-73
2021/12/28 09:46:45;;;;;;;124.97;55.08;;;1.50;99.90;;;;;;5013431;28;20026;-73
2021/12/28 09:49:10;;;;;;;132.38;53.55;;;1.60;99.90;;;;;;5015589;28;20040;-73
2021/12/28 09:51:36;;;;;;;131.55;54.35;;;1.60;99.90;;;;;;5013410;28;20042;-72
2021/12/28 09:54:02;;;;;;;120.25;51.92;;;1.60;99.90;;;;;;5021721;28;20036;-73
2021/12/28 09:56:27;;;;;;;126.65;53.15;;;1.60;99.90;;;;;;5033358;28;20040;-73
2021/12/28 09:58:53;;;;;;;132.90;54.80;;;1.70;99.90;;;;;;5028548;28;20033;-72
2021/12/28 10:01:20;;;;;;;136.88;54.30;;;1.70;99.90;;;;;;5031785;28;20504;-73
2021/12/28 10:03:46;;;;;;;127.60;53.92;;;1.60;99.90;;;;;;5032609;28;20034;-72
2021/12/28 10:06:27;;;;;;;136.68;54.15;;;1.70;99.90;;;;;;5015380;28;20046;-73
2021/12/28 10:09:12;;;;;;;130.77;53.33;;;1.70;99.90;;;;;;5013371;28;20396;-73
2021/12/28 10:11:57;;;;;;;124.45;52.67;;;1.60;99.90;;;;;;5015385;28;20497;-73
2021/12/28 10:14:26;;;;;;;127.00;54.17;;;1.60;99.90;;;;;;5024310;28;20041;-73
2021/12/28 10:16:57;;;;;;;135.95;53.80;;;1.60;99.90;;;;;;5031630;28;20108;-73
2021/12/28 10:19:32;;;;;;;138.60;56.13;;;1.60;99.90;;;;;;5027502;28;20385;-73
2021/12/28 10:21:58;;;;;;;127.68;54.08;;;1.60;99.90;;;;;;5017677;28;20478;-73
2021/12/28 10:24:31;;;;;;;122.55;51.92;;;1.70;99.90;;;;;;5036836;28;20029;-74
2021/12/28 10:27:10;;;;;;;;;;;1.70;99.90;;;;;;5037200;28;20025;-73
2021/12/28 10:29:36;;;;;;;121.38;52.33;;;1.70;99.90;;;;;;5019508;28;19909;-73
2021/12/28 10:32:25;;;;;;;120.65;52.25;;;1.70;99.90;;;;;;5031092;28;20033;-73
2021/12/28 10:34:56;;;;;;;114.90;52.20;;;1.80;99.90;;;;;;5036610;28;20029;-74
2021/12/28 10:37:28;;;;;;;111.50;55.30;;;1.80;99.90;;;;;;5032815;28;20073;-72
2021/12/28 10:39:56;;;;;;;128.98;54.53;;;1.80;99.90;;;;;;5026389;28;20111;-72
2021/12/28 10:42:46;;;;;;;130.80;54.03;;;1.80;99.90;;;;;;5026660;28;20072;-73
2021/12/28 10:45:16;;;;;;;116.40;50.95;;;1.80;99.90;;;;;;5036926;28;20025;-73
2021/12/28 10:47:41;;;;;;;121.53;53.38;;;1.80;99.90;;;;;;5028882;28;20541;-72
2021/12/28 10:50:25;;;;;;;118.07;51.70;;;1.80;99.90;;;;;;5016603;28;20109;-73
2021/12/28 10:53:00;;;;;;;116.03;53.33;;;1.90;99.90;;;;;;5022690;28;20026;-73
2021/12/28 10:55:28;;;;;;;120.80;51.05;;;1.90;99.90;;;;;;5036429;28;20021;-72
2021/12/28 10:57:53;;;;;;;129.18;54.22;;;1.90;99.90;;;;;;5031988;28;20018;-72
2021/12/28 11:00:25;;;;;;;126.22;55.53;;;1.90;99.90;;;;;;5036221;28;20075;-73
2021/12/28 11:02:52;;;;;;;106.95;49.70;;;1.90;99.90;;;;;;5035060;28;20473;-72
2021/12/28 11:05:34;;;;;;;119.65;52.28;;;1.90;99.90;;;;;;5018193;28;20071;-73
2021/12/28 11:08:01;;;;;;;107.40;50.50;;;2.00;99.90;;;;;;5018389;28;20084;-73
2021/12/28 11:10:28;;;;;;;113.05;52.33;;;2.00;99.90;;;;;;5014968;28;20124;-73
2021/12/28 11:12:55;;;;;;;115.75;52.75;;;2.00;99.90;;;;;;5017446;28;20026;-73
2021/12/28 11:15:24;;;;;;;110.35;49.25;;;2.00;99.90;;;;;;5035840;28;20393;-73
2021/12/28 11:17:51;;;;;;;111.20;49.85;;;2.00;99.90;;;;;;5035773;28;20029;-73
2021/12/28 11:20:17;;;;;;;111.90;51.28;;;2.00;99.90;;;;;;5017847;28;20112;-74
2021/12/28 11:23:09;;;;;;;111.47;51.03;;;2.00;99.90;;;;;;5023092;28;20418;-74
2021/12/28 11:25:34;;;;;;;115.90;51.20;;;2.00;99.90;;;;;;5027719;28;20033;-73
2021/12/28 11:28:21;;;;;;;127.85;53.30;;;2.00;99.90;;;;;;5032575;28;20370;-73
2021/12/28 11:31:05;;;;;;;133.55;53.13;;;2.00;99.90;;;;;;5032308;28;20061;-73
2021/12/28 11:33:44;;;;;;;122.88;53.90;;;2.00;99.90;;;;;;5016077;28;20461;-73
2021/12/28 11:36:10;;;;;;;118.85;50.53;;;2.00;99.90;;;;;;5015326;28;20430;-73
2021/12/28 11:38:36;;;;;;;107.32;51.40;;;2.00;99.90;;;;;;5018111;28;20489;-73
2021/12/28 11:41:04;;;;;;;121.60;50.47;;;2.00;99.90;;;;;;5028886;28;20037;-73
2021/12/28 11:43:33;;;;;;;116.78;51.53;;;2.10;99.90;;;;;;5015530;28;20061;-73
2021/12/28 11:45:58;;;;;;;124.05;52.45;;;2.10;99.90;;;;;;5015847;28;20522;-73
2021/12/28 11:48:24;;;;;;;127.25;49.92;;;2.10;99.90;;;;;;5015524;28;20025;-73
2021/12/28 11:50:51;;;;;;;109.45;52.63;;;2.10;99.90;;;;;;5015800;28;20026;-73
2021/12/28 11:53:17;;;;;;;118.25;53.13;;;2.20;99.90;;;;;;5017637;28;20037;-73
2021/12/28 11:55:43;;;;;;;113.32;53.28;;;2.20;99.90;;;;;;5015319;28;20026;-73
2021/12/28 11:58:10;;;;;;;110.93;50.88;;;2.20;99.90;;;;;;5028811;28;20481;-72
2021/12/28 12:00:41;;;;;;;118.70;51.63;;;2.30;99.90;;;;;;5035394;28;20354;-72
2021/12/28 12:03:07;;;;;;;115.28;51.72;;;2.30;99.90;;;;;;5025673;28;20026;-74
2021/12/28 12:05:34;;;;;;;112.05;50.97;;;2.30;99.90;;;;;;5014913;28;20080;-72
2021/12/28 12:08:13;;;;;;;109.68;51.83;;;2.30;99.90;;;;;;5039068;23;20077;-70
2021/12/28 12:10:43;;;;;;;114.25;53.88;;;2.20;99.90;;;;;;5015103;28;20050;-71
2021/12/28 12:13:23;;;;;;;117.13;51.00;;;2.20;99.90;;;;;;5023394;28;20033;-70
2021/12/28 12:16:12;;;;;;;113.45;50.70;;;2.20;99.90;;;;;;5035035;28;20026;-69
2021/12/28 12:18:47;;;;;;;112.55;50.85;;;2.20;99.90;;;;;;5030839;28;20038;-70
2021/12/28 12:21:17;;;;;;;108.55;49.88;;;2.20;99.90;;;;;;5032613;28;20018;-71
2021/12/28 12:23:51;;;;;;;121.90;48.60;;;2.20;99.90;;;;;;5013872;28;20029;-71
2021/12/28 12:26:28;;;;;;;;;;;2.20;99.90;;;;;;5015821;28;20026;-70
2021/12/28 12:28:55;;;;;;;119.68;52.92;;;2.10;99.90;;;;;;5015059;28;20288;-70
2021/12/28 12:31:41;;;;;;;107.72;49.80;;;2.10;99.90;;;;;;5033491;28;20034;-70
2021/12/28 12:34:28;;;;;;;116.97;50.78;;;2.20;99.90;;;;;;5034689;28;20025;-70
2021/12/28 12:36:54;;;;;;;122.75;52.25;;;2.20;99.90;;;;;;5034258;28;20034;-70